createdAt,value
2019-03-11T00:00:10.789Z,49.74
2019-03-11T00:04:23.341Z,49.40
2019-03-11T00:08:30.111Z,49.68
2019-03-11T00:12:38.185Z,50.29
2019-03-11T00:16:46.352Z,50.25
2019-03-11T00:20:54.179Z,50.41
2019-03-11T00:25:01.949Z,51.67
2019-03-11T00:29:10.186Z,50.26
2019-03-11T00:33:17.921Z,50.18
2019-03-11T00:37:26.039Z,50.50
2019-03-11T00:41:33.732Z,50.17
2019-03-11T00:45:41.530Z,50.37
2019-03-11T00:49:49.250Z,50.99
2019-03-11T00:53:57.983Z,51.13
2019-03-11T00:58:05.996Z,50.81
2019-03-11T01:02:14.307Z,51.39
2019-03-11T01:06:22.011Z,52.20
2019-03-11T01:10:30.242Z,51.71
2019-03-11T01:14:38.466Z,51.91
2019-03-11T01:18:46.246Z,51.38
2019-03-11T01:22:54.475Z,51.76
2019-03-11T01:27:02.787Z,51.95
2019-03-11T01:31:10.525Z,52.07
2019-03-11T01:35:18.744Z,52.12
2019-03-11T01:39:27.039Z,52.91
2019-03-11T01:43:34.953Z,53.56
2019-03-11T01:47:42.690Z,52.49
2019-03-11T01:51:50.402Z,52.32
2019-03-11T01:55:58.529Z,52.29
2019-03-11T02:00:08.745Z,52.61
2019-03-11T02:04:16.562Z,53.13
2019-03-11T02:08:24.734Z,53.45
2019-03-11T02:12:33.003Z,53.91
2019-03-11T02:16:40.721Z,53.06
2019-03-11T02:20:48.727Z,47.67
2019-03-11T02:24:56.459Z,44.08
2019-03-11T02:29:04.371Z,40.83
2019-03-11T02:33:12.677Z,39.40
2019-03-11T02:37:21.616Z,38.86
2019-03-11T02:41:29.534Z,38.73
2019-03-11T02:45:37.662Z,39.18
2019-03-11T02:49:45.873Z,38.71
2019-03-11T02:53:53.682Z,38.39
2019-03-11T02:58:01.698Z,38.59
2019-03-11T03:02:35.386Z,38.44
2019-03-11T03:06:43.196Z,38.44
2019-03-11T03:10:51.521Z,38.89
2019-03-11T03:14:59.451Z,38.39
2019-03-11T03:19:07.256Z,38.20
2019-03-11T03:23:15.071Z,38.27
2019-03-11T03:27:22.782Z,38.71
2019-03-11T03:31:31.098Z,38.34
2019-03-11T03:35:38.827Z,38.67
2019-03-11T03:39:46.516Z,38.59
2019-03-11T03:43:54.435Z,39.69
2019-03-11T03:48:02.598Z,39.72
2019-03-11T03:52:10.778Z,39.51
2019-03-11T03:56:18.893Z,40.04
2019-03-11T04:00:26.535Z,39.29
2019-03-11T04:04:34.910Z,39.31
2019-03-11T04:08:43.133Z,39.21
2019-03-11T04:12:50.864Z,39.14
2019-03-11T04:16:58.952Z,39.26
2019-03-11T04:21:06.903Z,39.13
2019-03-11T04:25:15.306Z,39.09
2019-03-11T04:29:24.008Z,39.61
2019-03-11T04:33:32.320Z,40.11
2019-03-11T04:37:40.252Z,40.46
2019-03-11T04:41:48.493Z,40.35
2019-03-11T04:45:56.307Z,39.71
2019-03-11T04:50:04.092Z,39.39
2019-03-11T04:54:12.522Z,39.28
2019-03-11T04:58:20.435Z,39.56
2019-03-11T05:02:28.704Z,39.67
2019-03-11T05:06:36.273Z,39.89
2019-03-11T05:10:44.494Z,39.92
2019-03-11T05:14:52.999Z,39.95
2019-03-11T05:19:01.145Z,39.62
2019-03-11T05:23:08.837Z,39.99
2019-03-11T05:27:17.083Z,40.38
2019-03-11T05:31:24.736Z,39.93
2019-03-11T05:35:32.577Z,40.21
2019-03-11T05:39:41.088Z,39.44
2019-03-11T05:43:48.825Z,39.34
2019-03-11T05:47:56.610Z,39.23
2019-03-11T05:52:04.453Z,39.04
2019-03-11T05:56:12.330Z,39.10
2019-03-11T06:00:24.527Z,38.96
2019-03-11T06:04:32.262Z,38.58
2019-03-11T06:08:40.578Z,38.65
2019-03-11T06:12:48.746Z,38.15
2019-03-11T06:16:56.640Z,38.45
2019-03-11T06:21:38.924Z,38.58
2019-03-11T06:25:46.849Z,38.57
2019-03-11T06:29:54.635Z,38.06
2019-03-11T06:34:02.570Z,37.87
2019-03-11T06:38:10.680Z,37.93
2019-03-11T06:42:18.303Z,37.85
2019-03-11T06:46:26.493Z,37.57
2019-03-11T06:50:34.719Z,37.35
2019-03-11T06:54:42.428Z,37.56
2019-03-11T06:58:51.669Z,37.63
2019-03-11T07:02:59.470Z,37.50
2019-03-11T07:07:07.285Z,37.17
2019-03-11T07:11:15.308Z,37.04
2019-03-11T07:15:23.105Z,37.64
2019-03-11T07:19:30.856Z,37.16
2019-03-11T07:23:38.656Z,37.60
2019-03-11T07:27:46.761Z,37.66
2019-03-11T07:31:54.891Z,37.24
2019-03-11T07:36:03.080Z,37.28
2019-03-11T07:40:10.911Z,37.16
2019-03-11T07:44:18.760Z,37.09
2019-03-11T07:48:26.927Z,37.20
2019-03-11T07:52:34.838Z,35.96
2019-03-11T07:56:43.072Z,35.96
2019-03-11T08:00:54.214Z,36.43
2019-03-11T08:05:00.421Z,36.30
2019-03-11T08:09:08.947Z,36.63
2019-03-11T08:13:16.857Z,36.63
2019-03-11T08:17:24.556Z,36.63
2019-03-11T08:21:34.310Z,36.14
2019-03-11T08:25:42.034Z,36.09
2019-03-11T08:29:49.859Z,36.90
2019-03-11T08:33:57.754Z,36.82
2019-03-11T08:38:06.601Z,36.15
2019-03-11T08:42:14.707Z,36.69
2019-03-11T08:46:23.119Z,36.69
2019-03-11T08:50:30.939Z,35.95
2019-03-11T08:54:38.431Z,35.70
2019-03-11T08:58:46.156Z,34.66
2019-03-11T09:02:53.958Z,34.51
2019-03-11T09:07:02.071Z,34.61
2019-03-11T09:11:10.801Z,33.59
2019-03-11T09:15:18.667Z,33.79
2019-03-11T09:19:26.556Z,33.89
2019-03-11T09:23:34.374Z,33.53
2019-03-11T09:27:42.265Z,33.81
2019-03-11T09:31:50.497Z,33.57
2019-03-11T09:35:58.300Z,33.94
2019-03-11T09:40:06.847Z,33.94
2019-03-11T09:44:15.148Z,34.63
2019-03-11T09:48:23.802Z,34.41
2019-03-11T09:52:31.795Z,33.85
2019-03-11T09:56:43.615Z,33.59
2019-03-11T10:00:49.669Z,33.49
2019-03-11T10:04:57.567Z,33.11
2019-03-11T10:09:07.361Z,32.04
2019-03-11T10:13:16.174Z,33.36
2019-03-11T10:17:23.985Z,33.14
2019-03-11T10:21:33.449Z,32.96
2019-03-11T10:25:41.240Z,32.01
2019-03-11T10:29:49.242Z,32.55
2019-03-11T10:33:57.056Z,32.76
2019-03-11T10:38:04.833Z,32.58
2019-03-11T10:42:13.373Z,32.92
2019-03-11T10:46:21.185Z,33.00
2019-03-11T10:50:29.310Z,33.42
2019-03-11T10:54:37.569Z,33.16
2019-03-11T10:58:45.226Z,32.44
2019-03-11T11:02:53.446Z,31.70
2019-03-11T11:07:01.668Z,32.22
2019-03-11T11:11:10.386Z,33.05
2019-03-11T11:15:19.783Z,34.20
2019-03-11T11:19:28.017Z,33.96
2019-03-11T11:23:35.936Z,32.92
2019-03-11T11:27:43.987Z,33.38
2019-03-11T11:31:53.743Z,33.47
2019-03-11T11:36:01.364Z,33.95
2019-03-11T11:40:12.550Z,33.83
2019-03-11T11:44:21.568Z,34.42
2019-03-11T11:48:29.306Z,34.50
2019-03-11T11:52:37.082Z,34.71
2019-03-11T11:56:45.016Z,33.75
2019-03-11T12:00:52.768Z,33.95
2019-03-11T12:05:00.512Z,34.29
2019-03-11T12:09:08.335Z,34.70
2019-03-11T12:13:18.109Z,34.50
2019-03-11T12:17:26.325Z,34.15
2019-03-11T12:21:33.925Z,34.22
2019-03-11T12:25:42.034Z,34.04
2019-03-11T12:29:49.844Z,32.97
2019-03-11T12:33:57.559Z,32.58
2019-03-11T12:38:05.760Z,32.33
2019-03-11T12:42:13.525Z,33.23
2019-03-11T12:46:21.287Z,33.83
2019-03-11T12:50:29.316Z,33.92
2019-03-11T12:54:37.021Z,34.34
2019-03-11T12:58:44.716Z,34.68
2019-03-11T13:02:52.826Z,34.43
2019-03-11T13:07:00.537Z,34.12
2019-03-11T13:11:08.288Z,34.14
2019-03-11T13:15:16.483Z,33.03
2019-03-11T13:19:24.111Z,32.38
2019-03-11T13:23:31.878Z,31.79
2019-03-11T13:27:40.197Z,31.81
2019-03-11T13:31:47.901Z,32.47
2019-03-11T13:35:56.910Z,32.96
2019-03-11T13:40:05.020Z,33.09
2019-03-11T13:44:12.778Z,33.18
2019-03-11T13:48:20.907Z,32.83
2019-03-11T13:52:28.896Z,32.54
2019-03-11T13:56:36.719Z,32.55
2019-03-11T14:00:56.004Z,33.14
2019-03-11T14:04:54.303Z,33.09
2019-03-11T14:09:02.023Z,33.32
2019-03-11T14:13:11.846Z,33.93
2019-03-11T14:17:19.643Z,34.25
2019-03-11T14:21:27.881Z,34.04
2019-03-11T14:25:35.692Z,34.51
2019-03-11T14:29:43.307Z,34.68
2019-03-11T14:33:51.460Z,34.52
2019-03-11T14:37:59.620Z,34.75
2019-03-11T14:42:07.416Z,34.90
2019-03-11T14:46:15.273Z,34.85
2019-03-11T14:50:23.169Z,35.26
2019-03-11T14:54:30.886Z,35.50
2019-03-11T14:58:38.827Z,35.64
2019-03-11T15:02:47.216Z,35.32
2019-03-11T15:06:55.018Z,35.66
2019-03-11T15:11:03.317Z,35.42
2019-03-11T15:15:13.232Z,35.91
2019-03-11T15:19:21.622Z,36.20
2019-03-11T15:23:30.042Z,36.48
2019-03-11T15:27:37.853Z,36.67
2019-03-11T15:31:45.573Z,37.02
2019-03-11T15:35:53.984Z,37.31
2019-03-11T15:40:02.050Z,37.40
2019-03-11T15:44:10.447Z,37.85
2019-03-11T15:48:18.658Z,37.85
2019-03-11T15:52:26.457Z,38.11
2019-03-11T15:56:34.684Z,38.43
2019-03-11T16:00:42.831Z,38.63
2019-03-11T16:04:50.790Z,38.85
2019-03-11T16:08:59.038Z,38.99
2019-03-11T16:13:06.755Z,39.52
2019-03-11T16:17:15.205Z,39.74
2019-03-11T16:21:24.607Z,39.70
2019-03-11T16:25:32.416Z,40.06
2019-03-11T16:29:40.531Z,40.12
2019-03-11T16:33:48.643Z,40.38
2019-03-11T16:37:56.373Z,40.63
2019-03-11T16:42:04.811Z,41.18
2019-03-11T16:46:13.051Z,41.42
2019-03-11T16:50:21.145Z,42.44
2019-03-11T16:54:29.444Z,42.67
2019-03-11T16:58:37.667Z,42.83
2019-03-11T17:02:45.438Z,42.82
2019-03-11T17:06:53.500Z,42.87
2019-03-11T17:11:01.512Z,43.00
2019-03-11T17:15:09.464Z,43.42
2019-03-11T17:19:17.331Z,42.57
2019-03-11T17:23:24.856Z,42.65
2019-03-11T17:27:33.168Z,42.33
2019-03-11T17:31:42.311Z,43.13
2019-03-11T17:35:49.961Z,43.19
2019-03-11T17:39:57.911Z,43.31
2019-03-11T17:44:05.776Z,43.08
2019-03-11T17:48:13.631Z,43.82
2019-03-11T17:52:21.780Z,44.62
2019-03-11T17:56:29.409Z,44.68
2019-03-11T18:00:40.568Z,44.63
2019-03-11T18:04:48.575Z,45.15
2019-03-11T18:08:56.575Z,45.09
2019-03-11T18:13:04.739Z,44.99
2019-03-11T18:17:13.142Z,44.97
2019-03-11T18:21:21.020Z,44.39
2019-03-11T18:25:29.337Z,43.62
2019-03-11T18:29:37.102Z,44.79
2019-03-11T18:33:44.787Z,44.85
2019-03-11T18:38:03.615Z,44.83
2019-03-11T18:42:03.598Z,45.37
2019-03-11T18:46:11.503Z,44.14
2019-03-11T18:50:20.338Z,45.75
2019-03-11T18:54:28.105Z,45.24
2019-03-11T18:58:36.359Z,45.50
2019-03-11T19:02:44.808Z,46.15
2019-03-11T19:06:52.420Z,46.35
2019-03-11T19:11:00.232Z,46.63
2019-03-11T19:15:09.339Z,45.61
2019-03-11T19:19:17.155Z,46.09
2019-03-11T19:23:24.875Z,46.30
2019-03-11T19:27:34.078Z,46.98
2019-03-11T19:31:41.815Z,48.58
2019-03-11T19:35:49.862Z,49.75
2019-03-11T19:39:57.823Z,53.30
2019-03-11T19:44:05.750Z,52.22
2019-03-11T19:48:13.602Z,51.94
2019-03-11T19:52:21.183Z,51.83
2019-03-11T19:56:29.162Z,51.92
2019-03-11T20:00:37.582Z,52.70
2019-03-11T20:04:45.379Z,54.26
2019-03-11T20:08:53.566Z,54.71
2019-03-11T20:13:01.942Z,55.17
2019-03-11T20:17:11.044Z,55.59
2019-03-11T20:21:19.021Z,54.54
2019-03-11T20:25:27.867Z,53.79
2019-03-11T20:29:35.362Z,53.58
2019-03-11T20:33:43.566Z,54.94
2019-03-11T20:37:51.757Z,54.82
2019-03-11T20:41:59.601Z,53.04
2019-03-11T20:46:07.553Z,52.31
2019-03-11T20:50:15.497Z,52.34
2019-03-11T20:54:23.214Z,52.31
2019-03-11T20:58:31.463Z,52.27
2019-03-11T21:02:39.076Z,50.68
2019-03-11T21:06:47.229Z,49.73
2019-03-11T21:10:57.063Z,51.57
2019-03-11T21:15:05.000Z,52.59
2019-03-11T21:19:13.388Z,53.84
2019-03-11T21:23:22.051Z,55.43
2019-03-11T21:27:29.680Z,55.39
2019-03-11T21:31:38.002Z,56.74
2019-03-11T21:35:46.075Z,53.74
2019-03-11T21:39:53.800Z,55.91
2019-03-11T21:44:02.057Z,58.77
2019-03-11T21:48:09.910Z,61.18
2019-03-11T21:52:17.571Z,65.72
2019-03-11T21:56:25.979Z,68.50
2019-03-11T22:00:35.184Z,69.53
2019-03-11T22:04:43.245Z,69.68
2019-03-11T22:08:51.152Z,69.88
2019-03-11T22:12:58.869Z,69.86
2019-03-11T22:17:07.083Z,71.19
2019-03-11T22:21:15.205Z,70.51
2019-03-11T22:25:23.049Z,69.56
2019-03-11T22:29:31.330Z,70.13
2019-03-11T22:33:39.641Z,70.09
2019-03-11T22:37:47.366Z,70.20
2019-03-11T22:41:55.162Z,70.49
2019-03-11T22:46:03.393Z,71.67
2019-03-11T22:50:11.295Z,71.86
2019-03-11T22:54:19.509Z,74.10
2019-03-11T22:58:27.128Z,72.76
2019-03-11T23:02:40.075Z,73.26
2019-03-11T23:06:44.415Z,72.66
2019-03-11T23:10:52.610Z,74.56
2019-03-11T23:15:00.446Z,73.91
2019-03-11T23:19:08.333Z,75.27
2019-03-11T23:23:16.040Z,75.00
2019-03-11T23:27:24.248Z,75.40
2019-03-11T23:31:33.636Z,75.06
2019-03-11T23:35:41.293Z,74.76
2019-03-11T23:39:49.364Z,73.36
2019-03-11T23:43:58.775Z,73.06
2019-03-11T23:48:06.482Z,73.98
2019-03-11T23:52:14.391Z,74.09
2019-03-11T23:56:22.093Z,73.59
